sensor_id;sensor_type;location;lat;lon;timestamp;P1;durP1;ratioP1;P2;durP2;ratioP2
12556;SDS011;6344;49.932;8.308;2023-06-10T00:01:24;15.63;;;14.40;;
12556;SDS011;6344;49.932;8.308;2023-06-10T00:03:52;15.00;;;13.90;;
12556;SDS011;6344;49.932;8.308;2023-06-10T00:06:19;17.57;;;16.00;;
12556;SDS011;6344;49.932;8.308;2023-06-10T00:08:49;17.83;;;16.43;;
12556;SDS011;6344;49.932;8.308;2023-06-10T00:11:16;15.87;;;14.60;;
12556;SDS011;6344;49.932;8.308;2023-06-10T00:13:42;17.43;;;15.90;;
12556;SDS011;6344;49.932;8.308;2023-06-10T00:16:10;15.47;;;14.37;;
12556;SDS011;6344;49.932;8.308;2023-06-10T00:18:37;15.77;;;14.47;;
12556;SDS011;6344;49.932;8.308;2023-06-10T00:21:04;17.83;;;16.30;;
12556;SDS011;6344;49.932;8.308;2023-06-10T00:23:30;16.47;;;15.07;;
12556;SDS011;6344;49.932;8.308;2023-06-10T00:26:02;16.53;;;15.37;;
12556;SDS011;6344;49.932;8.308;2023-06-10T00:28:29;17.10;;;15.80;;
12556;SDS011;6344;49.932;8.308;2023-06-10T00:30:56;17.13;;;15.90;;
12556;SDS011;6344;49.932;8.308;2023-06-10T00:33:23;17.33;;;15.93;;
12556;SDS011;6344;49.932;8.308;2023-06-10T00:35:50;17.10;;;15.70;;
12556;SDS011;6344;49.932;8.308;2023-06-10T00:38:17;17.10;;;15.57;;
12556;SDS011;6344;49.932;8.308;2023-06-10T00:40:43;15.77;;;14.40;;
12556;SDS011;6344;49.932;8.308;2023-06-10T00:43:10;17.70;;;16.00;;
12556;SDS011;6344;49.932;8.308;2023-06-10T00:45:37;16.77;;;15.47;;
12556;SDS011;6344;49.932;8.308;2023-06-10T00:48:03;16.43;;;15.07;;
12556;SDS011;6344;49.932;8.308;2023-06-10T00:50:32;15.63;;;14.43;;
12556;SDS011;6344;49.932;8.308;2023-06-10T00:53:00;15.83;;;14.63;;
12556;SDS011;6344;49.932;8.308;2023-06-10T00:55:27;15.83;;;14.73;;
12556;SDS011;6344;49.932;8.308;2023-06-10T00:57:54;17.23;;;15.93;;
12556;SDS011;6344;49.932;8.308;2023-06-10T01:00:21;15.40;;;14.40;;
12556;SDS011;6344;49.932;8.308;2023-06-10T01:02:47;15.93;;;14.80;;
12556;SDS011;6344;49.932;8.308;2023-06-10T01:05:17;15.73;;;14.63;;
12556;SDS011;6344;49.932;8.308;2023-06-10T01:07:48;15.87;;;14.50;;
12556;SDS011;6344;49.932;8.308;2023-06-10T01:10:22;17.30;;;16.07;;
12556;SDS011;6344;49.932;8.308;2023-06-10T01:12:55;16.57;;;15.37;;
12556;SDS011;6344;49.932;8.308;2023-06-10T01:15:27;16.40;;;14.90;;
12556;SDS011;6344;49.932;8.308;2023-06-10T01:17:55;16.63;;;15.43;;
12556;SDS011;6344;49.932;8.308;2023-06-10T01:20:24;16.60;;;15.20;;
12556;SDS011;6344;49.932;8.308;2023-06-10T01:22:53;16.50;;;15.40;;
12556;SDS011;6344;49.932;8.308;2023-06-10T01:25:20;16.60;;;15.30;;
12556;SDS011;6344;49.932;8.308;2023-06-10T01:27:52;16.23;;;15.00;;
12556;SDS011;6344;49.932;8.308;2023-06-10T01:30:24;17.23;;;15.60;;
12556;SDS011;6344;49.932;8.308;2023-06-10T01:32:58;16.23;;;15.03;;
12556;SDS011;6344;49.932;8.308;2023-06-10T01:35:27;14.80;;;13.73;;
12556;SDS011;6344;49.932;8.308;2023-06-10T01:37:58;15.97;;;14.87;;
12556;SDS011;6344;49.932;8.308;2023-06-10T01:40:25;16.10;;;15.00;;
12556;SDS011;6344;49.932;8.308;2023-06-10T01:42:53;16.43;;;14.97;;
12556;SDS011;6344;49.932;8.308;2023-06-10T01:45:20;16.63;;;15.10;;
12556;SDS011;6344;49.932;8.308;2023-06-10T01:47:47;16.00;;;14.70;;
12556;SDS011;6344;49.932;8.308;2023-06-10T01:50:13;16.67;;;15.50;;
12556;SDS011;6344;49.932;8.308;2023-06-10T01:52:41;15.37;;;14.20;;
12556;SDS011;6344;49.932;8.308;2023-06-10T01:55:09;16.27;;;15.03;;
12556;SDS011;6344;49.932;8.308;2023-06-10T01:57:36;17.03;;;15.50;;
12556;SDS011;6344;49.932;8.308;2023-06-10T02:00:02;16.40;;;15.10;;
12556;SDS011;6344;49.932;8.308;2023-06-10T02:02:30;16.30;;;15.00;;
12556;SDS011;6344;49.932;8.308;2023-06-10T02:04:57;14.77;;;13.70;;
12556;SDS011;6344;49.932;8.308;2023-06-10T02:07:23;17.37;;;16.07;;
12556;SDS011;6344;49.932;8.308;2023-06-10T02:09:50;16.17;;;14.87;;
12556;SDS011;6344;49.932;8.308;2023-06-10T02:12:18;16.67;;;15.40;;
12556;SDS011;6344;49.932;8.308;2023-06-10T02:14:44;16.77;;;15.47;;
12556;SDS011;6344;49.932;8.308;2023-06-10T02:17:11;17.20;;;15.60;;
12556;SDS011;6344;49.932;8.308;2023-06-10T02:19:39;15.53;;;14.33;;
12556;SDS011;6344;49.932;8.308;2023-06-10T02:22:07;17.43;;;16.00;;
12556;SDS011;6344;49.932;8.308;2023-06-10T02:24:35;15.73;;;14.60;;
12556;SDS011;6344;49.932;8.308;2023-06-10T02:27:02;17.83;;;16.53;;
12556;SDS011;6344;49.932;8.308;2023-06-10T02:29:32;15.70;;;14.40;;
12556;SDS011;6344;49.932;8.308;2023-06-10T02:31:59;15.80;;;14.70;;
12556;SDS011;6344;49.932;8.308;2023-06-10T02:34:26;15.43;;;14.30;;
12556;SDS011;6344;49.932;8.308;2023-06-10T02:36:52;15.63;;;14.50;;
12556;SDS011;6344;49.932;8.308;2023-06-10T02:39:19;15.77;;;14.57;;
12556;SDS011;6344;49.932;8.308;2023-06-10T02:41:46;16.47;;;14.83;;
12556;SDS011;6344;49.932;8.308;2023-06-10T02:44:12;16.27;;;14.97;;
12556;SDS011;6344;49.932;8.308;2023-06-10T02:46:40;14.73;;;13.60;;
12556;SDS011;6344;49.932;8.308;2023-06-10T02:49:07;15.70;;;14.50;;
12556;SDS011;6344;49.932;8.308;2023-06-10T02:51:33;17.03;;;15.73;;
12556;SDS011;6344;49.932;8.308;2023-06-10T02:54:00;15.50;;;14.20;;
12556;SDS011;6344;49.932;8.308;2023-06-10T02:56:27;15.87;;;14.77;;
12556;SDS011;6344;49.932;8.308;2023-06-10T02:58:54;15.70;;;14.50;;
12556;SDS011;6344;49.932;8.308;2023-06-10T03:01:20;14.77;;;13.60;;
12556;SDS011;6344;49.932;8.308;2023-06-10T03:03:48;15.40;;;14.10;;
12556;SDS011;6344;49.932;8.308;2023-06-10T03:06:15;16.70;;;15.20;;
12556;SDS011;6344;49.932;8.308;2023-06-10T03:08:43;15.60;;;14.43;;
12556;SDS011;6344;49.932;8.308;2023-06-10T03:11:10;14.97;;;13.87;;
12556;SDS011;6344;49.932;8.308;2023-06-10T03:13:38;15.60;;;14.30;;
12556;SDS011;6344;49.932;8.308;2023-06-10T03:16:05;16.63;;;15.30;;
12556;SDS011;6344;49.932;8.308;2023-06-10T03:18:32;15.90;;;14.50;;
12556;SDS011;6344;49.932;8.308;2023-06-10T03:21:00;15.97;;;14.67;;
12556;SDS011;6344;49.932;8.308;2023-06-10T03:23:27;16.20;;;15.00;;
12556;SDS011;6344;49.932;8.308;2023-06-10T03:25:54;14.93;;;13.53;;
12556;SDS011;6344;49.932;8.308;2023-06-10T03:28:21;14.40;;;13.30;;
12556;SDS011;6344;49.932;8.308;2023-06-10T03:30:47;16.30;;;15.00;;
12556;SDS011;6344;49.932;8.308;2023-06-10T03:33:14;15.73;;;14.53;;
12556;SDS011;6344;49.932;8.308;2023-06-10T03:35:41;14.77;;;13.77;;
12556;SDS011;6344;49.932;8.308;2023-06-10T03:38:09;15.40;;;14.13;;
12556;SDS011;6344;49.932;8.308;2023-06-10T03:40:35;15.97;;;14.67;;
12556;SDS011;6344;49.932;8.308;2023-06-10T03:43:02;13.90;;;12.80;;
12556;SDS011;6344;49.932;8.308;2023-06-10T03:45:29;13.70;;;12.53;;
12556;SDS011;6344;49.932;8.308;2023-06-10T03:47:57;14.27;;;13.17;;
12556;SDS011;6344;49.932;8.308;2023-06-10T03:50:23;15.00;;;13.60;;
12556;SDS011;6344;49.932;8.308;2023-06-10T03:52:51;15.20;;;13.80;;
12556;SDS011;6344;49.932;8.308;2023-06-10T03:55:19;13.13;;;12.07;;
12556;SDS011;6344;49.932;8.308;2023-06-10T03:57:46;13.80;;;12.77;;
12556;SDS011;6344;49.932;8.308;2023-06-10T04:00:14;13.03;;;12.03;;
12556;SDS011;6344;49.932;8.308;2023-06-10T04:02:41;13.63;;;12.60;;
12556;SDS011;6344;49.932;8.308;2023-06-10T04:05:10;16.07;;;14.83;;
12556;SDS011;6344;49.932;8.308;2023-06-10T04:07:37;14.50;;;13.50;;
12556;SDS011;6344;49.932;8.308;2023-06-10T04:10:06;14.17;;;13.17;;
12556;SDS011;6344;49.932;8.308;2023-06-10T04:12:35;12.70;;;11.90;;
12556;SDS011;6344;49.932;8.308;2023-06-10T04:15:02;14.23;;;13.23;;
12556;SDS011;6344;49.932;8.308;2023-06-10T04:17:29;13.90;;;12.60;;
12556;SDS011;6344;49.932;8.308;2023-06-10T04:19:55;13.47;;;12.40;;
12556;SDS011;6344;49.932;8.308;2023-06-10T04:22:23;14.00;;;13.00;;
12556;SDS011;6344;49.932;8.308;2023-06-10T04:24:50;12.93;;;11.90;;
12556;SDS011;6344;49.932;8.308;2023-06-10T04:27:16;13.50;;;12.40;;
12556;SDS011;6344;49.932;8.308;2023-06-10T04:29:44;13.20;;;12.20;;
12556;SDS011;6344;49.932;8.308;2023-06-10T04:32:11;13.60;;;12.50;;
12556;SDS011;6344;49.932;8.308;2023-06-10T04:34:37;13.27;;;12.33;;
12556;SDS011;6344;49.932;8.308;2023-06-10T04:37:05;14.23;;;13.13;;
12556;SDS011;6344;49.932;8.308;2023-06-10T04:39:32;13.80;;;12.53;;
12556;SDS011;6344;49.932;8.308;2023-06-10T04:41:58;12.43;;;11.47;;
12556;SDS011;6344;49.932;8.308;2023-06-10T04:44:25;12.23;;;11.23;;
12556;SDS011;6344;49.932;8.308;2023-06-10T04:46:53;12.80;;;11.53;;
12556;SDS011;6344;49.932;8.308;2023-06-10T04:49:20;11.93;;;11.03;;
12556;SDS011;6344;49.932;8.308;2023-06-10T04:51:47;12.50;;;11.50;;
12556;SDS011;6344;49.932;8.308;2023-06-10T04:54:14;11.67;;;10.80;;
12556;SDS011;6344;49.932;8.308;2023-06-10T04:56:40;12.87;;;11.77;;
12556;SDS011;6344;49.932;8.308;2023-06-10T04:59:07;11.97;;;11.17;;
12556;SDS011;6344;49.932;8.308;2023-06-10T05:01:34;11.97;;;11.03;;
12556;SDS011;6344;49.932;8.308;2023-06-10T05:04:02;11.80;;;10.67;;
12556;SDS011;6344;49.932;8.308;2023-06-10T05:06:29;12.33;;;11.50;;
12556;SDS011;6344;49.932;8.308;2023-06-10T05:08:56;12.30;;;11.33;;
12556;SDS011;6344;49.932;8.308;2023-06-10T05:11:22;11.70;;;10.80;;
12556;SDS011;6344;49.932;8.308;2023-06-10T05:13:49;12.70;;;11.70;;
12556;SDS011;6344;49.932;8.308;2023-06-10T05:16:15;11.93;;;11.00;;
12556;SDS011;6344;49.932;8.308;2023-06-10T05:18:42;11.43;;;10.50;;
12556;SDS011;6344;49.932;8.308;2023-06-10T05:21:10;12.07;;;11.07;;
12556;SDS011;6344;49.932;8.308;2023-06-10T05:23:36;11.43;;;10.63;;
12556;SDS011;6344;49.932;8.308;2023-06-10T05:26:03;11.67;;;10.87;;
12556;SDS011;6344;49.932;8.308;2023-06-10T05:28:30;12.30;;;11.37;;
12556;SDS011;6344;49.932;8.308;2023-06-10T05:30:56;10.80;;;10.00;;
12556;SDS011;6344;49.932;8.308;2023-06-10T05:33:23;10.70;;;9.90;;
12556;SDS011;6344;49.932;8.308;2023-06-10T05:35:49;12.20;;;11.00;;
12556;SDS011;6344;49.932;8.308;2023-06-10T05:38:17;11.60;;;10.77;;
12556;SDS011;6344;49.932;8.308;2023-06-10T05:40:45;11.50;;;10.80;;
12556;SDS011;6344;49.932;8.308;2023-06-10T05:43:12;11.70;;;10.90;;
12556;SDS011;6344;49.932;8.308;2023-06-10T05:45:39;10.10;;;9.40;;
12556;SDS011;6344;49.932;8.308;2023-06-10T05:48:05;11.00;;;10.00;;
12556;SDS011;6344;49.932;8.308;2023-06-10T05:50:33;11.20;;;10.30;;
12556;SDS011;6344;49.932;8.308;2023-06-10T05:53:03;12.07;;;11.07;;
12556;SDS011;6344;49.932;8.308;2023-06-10T05:55:33;11.17;;;10.40;;
12556;SDS011;6344;49.932;8.308;2023-06-10T05:57:59;11.53;;;10.63;;
12556;SDS011;6344;49.932;8.308;2023-06-10T06:00:26;10.93;;;9.97;;
12556;SDS011;6344;49.932;8.308;2023-06-10T06:02:53;10.53;;;9.83;;
12556;SDS011;6344;49.932;8.308;2023-06-10T06:05:20;11.50;;;10.70;;
12556;SDS011;6344;49.932;8.308;2023-06-10T06:07:47;11.73;;;10.70;;
12556;SDS011;6344;49.932;8.308;2023-06-10T06:10:13;11.13;;;10.33;;
12556;SDS011;6344;49.932;8.308;2023-06-10T06:12:41;12.27;;;11.17;;
12556;SDS011;6344;49.932;8.308;2023-06-10T06:15:09;11.40;;;10.70;;
12556;SDS011;6344;49.932;8.308;2023-06-10T06:17:36;11.87;;;10.97;;
12556;SDS011;6344;49.932;8.308;2023-06-10T06:20:03;12.10;;;11.30;;
12556;SDS011;6344;49.932;8.308;2023-06-10T06:22:30;12.50;;;11.50;;
12556;SDS011;6344;49.932;8.308;2023-06-10T06:24:57;10.63;;;9.57;;
12556;SDS011;6344;49.932;8.308;2023-06-10T06:27:24;11.53;;;10.77;;
12556;SDS011;6344;49.932;8.308;2023-06-10T06:29:52;11.03;;;10.23;;
12556;SDS011;6344;49.932;8.308;2023-06-10T06:32:18;10.20;;;9.50;;
12556;SDS011;6344;49.932;8.308;2023-06-10T06:34:45;11.23;;;10.43;;
12556;SDS011;6344;49.932;8.308;2023-06-10T06:37:14;10.23;;;9.50;;
12556;SDS011;6344;49.932;8.308;2023-06-10T06:39:40;11.93;;;10.93;;
12556;SDS011;6344;49.932;8.308;2023-06-10T06:42:07;10.90;;;10.20;;
12556;SDS011;6344;49.932;8.308;2023-06-10T06:44:34;14.50;;;10.67;;
12556;SDS011;6344;49.932;8.308;2023-06-10T06:47:02;12.07;;;11.07;;
12556;SDS011;6344;49.932;8.308;2023-06-10T06:49:29;10.83;;;10.13;;
12556;SDS011;6344;49.932;8.308;2023-06-10T06:51:55;11.60;;;10.70;;
12556;SDS011;6344;49.932;8.308;2023-06-10T06:54:22;11.50;;;10.60;;
12556;SDS011;6344;49.932;8.308;2023-06-10T06:56:49;11.90;;;11.00;;
12556;SDS011;6344;49.932;8.308;2023-06-10T06:59:16;11.20;;;10.53;;
12556;SDS011;6344;49.932;8.308;2023-06-10T07:01:44;11.13;;;10.27;;
12556;SDS011;6344;49.932;8.308;2023-06-10T07:04:14;11.87;;;10.87;;
12556;SDS011;6344;49.932;8.308;2023-06-10T07:06:41;12.10;;;11.20;;
12556;SDS011;6344;49.932;8.308;2023-06-10T07:09:08;11.00;;;10.20;;
12556;SDS011;6344;49.932;8.308;2023-06-10T07:11:34;11.70;;;10.90;;
12556;SDS011;6344;49.932;8.308;2023-06-10T07:14:01;12.33;;;10.57;;
12556;SDS011;6344;49.932;8.308;2023-06-10T07:16:28;11.40;;;10.70;;
12556;SDS011;6344;49.932;8.308;2023-06-10T07:18:54;11.90;;;11.20;;
12556;SDS011;6344;49.932;8.308;2023-06-10T07:21:22;12.20;;;11.40;;
12556;SDS011;6344;49.932;8.308;2023-06-10T07:23:49;10.70;;;10.10;;
12556;SDS011;6344;49.932;8.308;2023-06-10T07:26:18;11.00;;;10.30;;
12556;SDS011;6344;49.932;8.308;2023-06-10T07:28:45;11.13;;;10.23;;
12556;SDS011;6344;49.932;8.308;2023-06-10T07:31:12;11.37;;;10.40;;
12556;SDS011;6344;49.932;8.308;2023-06-10T07:33:38;10.93;;;10.03;;
12556;SDS011;6344;49.932;8.308;2023-06-10T07:36:05;11.93;;;11.23;;
12556;SDS011;6344;49.932;8.308;2023-06-10T07:38:33;12.70;;;11.90;;
12556;SDS011;6344;49.932;8.308;2023-06-10T07:41:00;12.37;;;11.47;;
12556;SDS011;6344;49.932;8.308;2023-06-10T07:43:27;11.63;;;10.93;;
12556;SDS011;6344;49.932;8.308;2023-06-10T07:45:53;12.00;;;11.00;;
12556;SDS011;6344;49.932;8.308;2023-06-10T07:48:20;10.83;;;10.03;;
12556;SDS011;6344;49.932;8.308;2023-06-10T07:50:46;11.17;;;10.47;;
12556;SDS011;6344;49.932;8.308;2023-06-10T07:53:13;13.20;;;12.20;;
12556;SDS011;6344;49.932;8.308;2023-06-10T07:55:41;11.70;;;10.90;;
12556;SDS011;6344;49.932;8.308;2023-06-10T07:58:07;11.33;;;10.53;;
12556;SDS011;6344;49.932;8.308;2023-06-10T08:00:35;12.00;;;11.00;;
12556;SDS011;6344;49.932;8.308;2023-06-10T08:03:02;10.93;;;10.13;;
12556;SDS011;6344;49.932;8.308;2023-06-10T08:05:28;10.20;;;9.60;;
12556;SDS011;6344;49.932;8.308;2023-06-10T08:07:55;11.73;;;10.93;;
12556;SDS011;6344;49.932;8.308;2023-06-10T08:10:22;11.13;;;10.40;;
12556;SDS011;6344;49.932;8.308;2023-06-10T08:12:49;12.13;;;11.30;;
12556;SDS011;6344;49.932;8.308;2023-06-10T08:15:16;11.23;;;10.43;;
12556;SDS011;6344;49.932;8.308;2023-06-10T08:17:43;11.07;;;10.37;;
12556;SDS011;6344;49.932;8.308;2023-06-10T08:20:10;12.83;;;11.93;;
12556;SDS011;6344;49.932;8.308;2023-06-10T08:22:37;11.33;;;10.53;;
12556;SDS011;6344;49.932;8.308;2023-06-10T08:25:04;11.90;;;11.13;;
12556;SDS011;6344;49.932;8.308;2023-06-10T08:27:31;12.13;;;11.00;;
12556;SDS011;6344;49.932;8.308;2023-06-10T08:29:59;11.60;;;10.80;;
12556;SDS011;6344;49.932;8.308;2023-06-10T08:32:26;11.43;;;10.80;;
12556;SDS011;6344;49.932;8.308;2023-06-10T08:34:53;12.33;;;11.63;;
12556;SDS011;6344;49.932;8.308;2023-06-10T08:37:19;13.47;;;12.57;;
12556;SDS011;6344;49.932;8.308;2023-06-10T08:39:46;11.30;;;10.60;;
12556;SDS011;6344;49.932;8.308;2023-06-10T08:42:15;12.30;;;11.40;;
12556;SDS011;6344;49.932;8.308;2023-06-10T08:44:48;12.40;;;11.70;;
12556;SDS011;6344;49.932;8.308;2023-06-10T08:47:20;12.43;;;11.50;;
12556;SDS011;6344;49.932;8.308;2023-06-10T08:49:49;12.07;;;11.07;;
12556;SDS011;6344;49.932;8.308;2023-06-10T08:52:18;12.80;;;12.00;;
12556;SDS011;6344;49.932;8.308;2023-06-10T08:54:47;12.70;;;11.73;;
12556;SDS011;6344;49.932;8.308;2023-06-10T08:57:18;12.60;;;11.80;;
12556;SDS011;6344;49.932;8.308;2023-06-10T08:59:46;12.23;;;11.33;;
12556;SDS011;6344;49.932;8.308;2023-06-10T09:02:14;12.30;;;11.50;;
12556;SDS011;6344;49.932;8.308;2023-06-10T09:04:46;11.27;;;10.57;;
12556;SDS011;6344;49.932;8.308;2023-06-10T09:07:14;12.60;;;11.63;;
12556;SDS011;6344;49.932;8.308;2023-06-10T09:09:41;12.57;;;11.67;;
12556;SDS011;6344;49.932;8.308;2023-06-10T09:12:09;12.97;;;12.03;;
12556;SDS011;6344;49.932;8.308;2023-06-10T09:14:36;11.83;;;11.03;;
12556;SDS011;6344;49.932;8.308;2023-06-10T09:17:03;12.40;;;11.70;;
12556;SDS011;6344;49.932;8.308;2023-06-10T09:19:31;12.60;;;11.80;;
12556;SDS011;6344;49.932;8.308;2023-06-10T09:21:59;12.90;;;11.90;;
12556;SDS011;6344;49.932;8.308;2023-06-10T09:24:26;12.40;;;11.53;;
12556;SDS011;6344;49.932;8.308;2023-06-10T09:26:56;12.80;;;11.83;;
12556;SDS011;6344;49.932;8.308;2023-06-10T09:29:28;18.30;;;12.10;;
12556;SDS011;6344;49.932;8.308;2023-06-10T09:31:55;12.77;;;11.90;;
12556;SDS011;6344;49.932;8.308;2023-06-10T09:34:24;11.70;;;10.90;;
12556;SDS011;6344;49.932;8.308;2023-06-10T09:36:51;12.70;;;11.83;;
12556;SDS011;6344;49.932;8.308;2023-06-10T09:39:20;12.60;;;11.80;;
12556;SDS011;6344;49.932;8.308;2023-06-10T09:41:47;12.20;;;11.40;;
12556;SDS011;6344;49.932;8.308;2023-06-10T09:44:14;13.83;;;12.87;;
12556;SDS011;6344;49.932;8.308;2023-06-10T09:46:41;11.57;;;10.73;;
12556;SDS011;6344;49.932;8.308;2023-06-10T09:49:10;12.40;;;11.80;;
12556;SDS011;6344;49.932;8.308;2023-06-10T09:51:37;13.57;;;12.43;;
12556;SDS011;6344;49.932;8.308;2023-06-10T09:54:03;13.30;;;12.50;;
12556;SDS011;6344;49.932;8.308;2023-06-10T09:56:35;13.50;;;12.63;;
12556;SDS011;6344;49.932;8.308;2023-06-10T09:59:02;13.23;;;12.33;;
12556;SDS011;6344;49.932;8.308;2023-06-10T10:01:31;11.97;;;11.27;;
12556;SDS011;6344;49.932;8.308;2023-06-10T10:03:58;11.20;;;10.60;;
12556;SDS011;6344;49.932;8.308;2023-06-10T10:06:25;11.93;;;11.20;;
12556;SDS011;6344;49.932;8.308;2023-06-10T10:08:53;12.40;;;11.50;;
12556;SDS011;6344;49.932;8.308;2023-06-10T10:11:21;12.50;;;11.70;;
12556;SDS011;6344;49.932;8.308;2023-06-10T10:13:50;13.40;;;12.37;;
12556;SDS011;6344;49.932;8.308;2023-06-10T10:16:19;11.07;;;10.47;;
12556;SDS011;6344;49.932;8.308;2023-06-10T10:18:49;12.70;;;11.53;;
12556;SDS011;6344;49.932;8.308;2023-06-10T10:21:20;11.30;;;10.60;;
12556;SDS011;6344;49.932;8.308;2023-06-10T10:23:51;11.13;;;10.43;;
12556;SDS011;6344;49.932;8.308;2023-06-10T10:26:20;11.47;;;10.87;;
12556;SDS011;6344;49.932;8.308;2023-06-10T10:28:51;11.23;;;10.53;;
12556;SDS011;6344;49.932;8.308;2023-06-10T10:31:24;12.27;;;11.47;;
12556;SDS011;6344;49.932;8.308;2023-06-10T10:33:57;10.53;;;9.93;;
12556;SDS011;6344;49.932;8.308;2023-06-10T10:36:25;10.97;;;10.37;;
12556;SDS011;6344;49.932;8.308;2023-06-10T10:38:53;11.43;;;10.03;;
12556;SDS011;6344;49.932;8.308;2023-06-10T10:41:20;11.63;;;11.03;;
12556;SDS011;6344;49.932;8.308;2023-06-10T10:43:50;11.03;;;10.43;;
12556;SDS011;6344;49.932;8.308;2023-06-10T10:46:18;10.40;;;9.73;;
12556;SDS011;6344;49.932;8.308;2023-06-10T10:48:44;11.80;;;11.03;;
12556;SDS011;6344;49.932;8.308;2023-06-10T10:51:17;10.97;;;10.17;;
12556;SDS011;6344;49.932;8.308;2023-06-10T10:53:44;10.70;;;10.13;;
12556;SDS011;6344;49.932;8.308;2023-06-10T10:56:37;10.83;;;10.03;;
12556;SDS011;6344;49.932;8.308;2023-06-10T10:59:06;9.40;;;8.90;;
12556;SDS011;6344;49.932;8.308;2023-06-10T11:01:39;9.90;;;9.40;;
12556;SDS011;6344;49.932;8.308;2023-06-10T11:04:07;10.20;;;9.60;;
12556;SDS011;6344;49.932;8.308;2023-06-10T11:06:34;12.40;;;11.37;;
12556;SDS011;6344;49.932;8.308;2023-06-10T11:09:00;11.03;;;10.47;;
12556;SDS011;6344;49.932;8.308;2023-06-10T11:11:52;12.50;;;11.70;;
12556;SDS011;6344;49.932;8.308;2023-06-10T11:14:26;12.07;;;11.47;;
12556;SDS011;6344;49.932;8.308;2023-06-10T11:16:54;11.97;;;11.17;;
12556;SDS011;6344;49.932;8.308;2023-06-10T11:19:31;12.10;;;11.30;;
12556;SDS011;6344;49.932;8.308;2023-06-10T11:21:58;12.00;;;11.10;;
12556;SDS011;6344;49.932;8.308;2023-06-10T11:24:25;10.87;;;10.33;;
12556;SDS011;6344;49.932;8.308;2023-06-10T11:26:53;10.77;;;10.17;;
12556;SDS011;6344;49.932;8.308;2023-06-10T11:29:20;11.20;;;10.60;;
12556;SDS011;6344;49.932;8.308;2023-06-10T11:31:50;11.93;;;11.33;;
12556;SDS011;6344;49.932;8.308;2023-06-10T11:34:23;10.10;;;9.50;;
12556;SDS011;6344;49.932;8.308;2023-06-10T11:36:51;10.60;;;9.90;;
12556;SDS011;6344;49.932;8.308;2023-06-10T11:39:19;11.40;;;10.70;;
12556;SDS011;6344;49.932;8.308;2023-06-10T11:41:49;11.47;;;10.77;;
12556;SDS011;6344;49.932;8.308;2023-06-10T11:44:19;11.10;;;10.40;;
12556;SDS011;6344;49.932;8.308;2023-06-10T11:46:47;13.07;;;12.10;;
12556;SDS011;6344;49.932;8.308;2023-06-10T11:49:16;11.80;;;11.10;;
12556;SDS011;6344;49.932;8.308;2023-06-10T11:51:43;11.40;;;10.40;;
12556;SDS011;6344;49.932;8.308;2023-06-10T11:54:14;11.60;;;10.90;;
12556;SDS011;6344;49.932;8.308;2023-06-10T11:56:42;10.63;;;9.93;;
12556;SDS011;6344;49.932;8.308;2023-06-10T11:59:09;12.47;;;11.77;;
12556;SDS011;6344;49.932;8.308;2023-06-10T12:01:38;12.13;;;11.37;;
12556;SDS011;6344;49.932;8.308;2023-06-10T12:04:09;12.43;;;11.53;;
12556;SDS011;6344;49.932;8.308;2023-06-10T12:06:43;11.17;;;10.57;;
12556;SDS011;6344;49.932;8.308;2023-06-10T12:09:18;10.90;;;10.20;;
12556;SDS011;6344;49.932;8.308;2023-06-10T12:11:48;10.40;;;9.70;;
12556;SDS011;6344;49.932;8.308;2023-06-10T12:14:15;11.20;;;10.53;;
12556;SDS011;6344;49.932;8.308;2023-06-10T12:16:49;8.93;;;8.47;;
12556;SDS011;6344;49.932;8.308;2023-06-10T12:19:15;9.23;;;8.70;;
12556;SDS011;6344;49.932;8.308;2023-06-10T12:21:42;8.77;;;8.30;;
12556;SDS011;6344;49.932;8.308;2023-06-10T12:24:11;9.40;;;8.90;;
12556;SDS011;6344;49.932;8.308;2023-06-10T12:26:38;9.13;;;8.50;;
12556;SDS011;6344;49.932;8.308;2023-06-10T12:29:19;9.43;;;8.93;;
12556;SDS011;6344;49.932;8.308;2023-06-10T12:32:02;7.93;;;7.63;;
12556;SDS011;6344;49.932;8.308;2023-06-10T12:34:31;9.30;;;8.60;;
12556;SDS011;6344;49.932;8.308;2023-06-10T12:36:58;8.33;;;7.93;;
12556;SDS011;6344;49.932;8.308;2023-06-10T12:39:25;8.40;;;8.00;;
12556;SDS011;6344;49.932;8.308;2023-06-10T12:41:52;7.73;;;7.10;;
12556;SDS011;6344;49.932;8.308;2023-06-10T12:44:27;7.93;;;7.53;;
12556;SDS011;6344;49.932;8.308;2023-06-10T12:46:57;9.40;;;8.70;;
12556;SDS011;6344;49.932;8.308;2023-06-10T12:49:25;9.00;;;8.40;;
12556;SDS011;6344;49.932;8.308;2023-06-10T12:51:52;9.10;;;8.40;;
12556;SDS011;6344;49.932;8.308;2023-06-10T12:54:19;8.97;;;8.40;;
12556;SDS011;6344;49.932;8.308;2023-06-10T12:56:46;10.10;;;9.60;;
12556;SDS011;6344;49.932;8.308;2023-06-10T12:59:12;8.10;;;7.70;;
12556;SDS011;6344;49.932;8.308;2023-06-10T13:01:39;7.90;;;7.50;;
12556;SDS011;6344;49.932;8.308;2023-06-10T13:04:06;10.03;;;9.43;;
12556;SDS011;6344;49.932;8.308;2023-06-10T13:06:34;9.23;;;8.73;;
12556;SDS011;6344;49.932;8.308;2023-06-10T13:09:04;8.37;;;7.87;;
12556;SDS011;6344;49.932;8.308;2023-06-10T13:11:33;9.27;;;8.50;;
12556;SDS011;6344;49.932;8.308;2023-06-10T13:14:00;8.10;;;7.70;;
12556;SDS011;6344;49.932;8.308;2023-06-10T13:16:27;8.33;;;7.83;;
12556;SDS011;6344;49.932;8.308;2023-06-10T13:18:55;8.60;;;8.00;;
12556;SDS011;6344;49.932;8.308;2023-06-10T13:21:22;8.60;;;7.97;;
12556;SDS011;6344;49.932;8.308;2023-06-10T13:23:50;8.10;;;7.70;;
12556;SDS011;6344;49.932;8.308;2023-06-10T13:26:17;7.57;;;7.17;;
12556;SDS011;6344;49.932;8.308;2023-06-10T13:28:44;8.13;;;7.73;;
12556;SDS011;6344;49.932;8.308;2023-06-10T13:31:10;9.13;;;8.70;;
12556;SDS011;6344;49.932;8.308;2023-06-10T13:33:37;7.77;;;7.47;;
12556;SDS011;6344;49.932;8.308;2023-06-10T13:36:04;8.23;;;7.70;;
12556;SDS011;6344;49.932;8.308;2023-06-10T13:38:31;8.07;;;7.67;;
12556;SDS011;6344;49.932;8.308;2023-06-10T13:40:59;8.23;;;7.83;;
12556;SDS011;6344;49.932;8.308;2023-06-10T13:43:26;8.13;;;7.73;;
12556;SDS011;6344;49.932;8.308;2023-06-10T13:45:53;8.53;;;7.83;;
12556;SDS011;6344;49.932;8.308;2023-06-10T13:48:20;8.77;;;8.37;;
12556;SDS011;6344;49.932;8.308;2023-06-10T13:50:47;9.07;;;8.57;;
12556;SDS011;6344;49.932;8.308;2023-06-10T13:53:13;9.80;;;9.30;;
12556;SDS011;6344;49.932;8.308;2023-06-10T13:55:40;9.70;;;9.20;;
12556;SDS011;6344;49.932;8.308;2023-06-10T13:58:08;10.00;;;9.10;;
12556;SDS011;6344;49.932;8.308;2023-06-10T14:00:35;10.00;;;9.50;;
12556;SDS011;6344;49.932;8.308;2023-06-10T14:03:01;8.73;;;8.23;;
12556;SDS011;6344;49.932;8.308;2023-06-10T14:05:29;8.70;;;8.20;;
12556;SDS011;6344;49.932;8.308;2023-06-10T14:07:55;8.97;;;8.47;;
12556;SDS011;6344;49.932;8.308;2023-06-10T14:10:22;9.67;;;8.97;;
12556;SDS011;6344;49.932;8.308;2023-06-10T14:12:49;10.20;;;9.40;;
12556;SDS011;6344;49.932;8.308;2023-06-10T14:15:17;9.87;;;9.27;;
12556;SDS011;6344;49.932;8.308;2023-06-10T14:17:44;9.43;;;8.83;;
12556;SDS011;6344;49.932;8.308;2023-06-10T14:20:11;9.27;;;8.77;;
12556;SDS011;6344;49.932;8.308;2023-06-10T14:22:38;9.10;;;8.60;;
12556;SDS011;6344;49.932;8.308;2023-06-10T14:25:05;9.17;;;8.57;;
12556;SDS011;6344;49.932;8.308;2023-06-10T14:27:32;9.23;;;8.73;;
12556;SDS011;6344;49.932;8.308;2023-06-10T14:29:59;9.07;;;8.57;;
12556;SDS011;6344;49.932;8.308;2023-06-10T14:32:27;9.77;;;9.17;;
12556;SDS011;6344;49.932;8.308;2023-06-10T14:34:53;9.13;;;8.53;;
12556;SDS011;6344;49.932;8.308;2023-06-10T14:37:20;9.50;;;8.80;;
12556;SDS011;6344;49.932;8.308;2023-06-10T14:39:47;9.80;;;9.03;;
12556;SDS011;6344;49.932;8.308;2023-06-10T14:42:13;10.03;;;9.40;;